Terminal Aerodrome Forecast
Issued by NWS

Home | Current Version | Previous Version | Graphics & Text | Print | Product List | Glossary On
Versions: 1 2 3 4 5 6 7 8 9 10 11 12 13 14 15 16 17
000
FTUS42 KMHX 202300
TAFOAJ
TAF
KOAJ 202335Z 2100/2124 00000KT P6SM SCT030 BKN120
     FM210600 00000KT 1 1/2SM BR SCT005 SCT120
     FM211200 08005KT P6SM SCT020 SCT120
     FM211700 10006KT P6SM VCTS SCT030CB BKN100
      AMD LTD TO CLD VIS AND WIND=

USA.gov is the U.S. government's official web portal to all federal, state and local government web resources and services.